Time;durP1;ratioP1;P1;durP2;ratioP2;P2;SDS_P1;SDS_P2;PMS_P1;PMS_P2;Temp;Humidity;BMP_temperature;BMP_pressure;BME280_temperature;BME280_humidity;BME280_pressure;Samples;Min_cycle;Max_cycle;Signal;HPM_P1;HPM_P2
2023/04/21 00:00:54;;;;;;;23.67;13.13;;;12.60;74.10;;;;;;7382818;19;20024;-73
2023/04/21 00:03:32;;;;;;;26.17;14.02;;;12.60;74.20;;;;;;7383223;19;20321;-72
2023/04/21 00:06:01;;;;;;;36.13;14.48;;;12.50;74.30;;;;;;7383607;19;20034;-72
2023/04/21 00:08:29;;;;;;;28.40;15.15;;;12.50;74.50;;;;;;7383855;19;20029;-72
2023/04/21 00:10:58;;;;;;;30.15;15.57;;;12.50;74.80;;;;;;7403284;19;20010;-72
2023/04/21 00:13:27;;;;;;;30.20;16.58;;;12.50;74.80;;;;;;7381956;19;20271;-72
2023/04/21 00:15:55;;;;;;;28.73;16.38;;;12.50;74.90;;;;;;7381991;19;20070;-72
2023/04/21 00:18:24;;;;;;;32.70;16.55;;;12.50;74.80;;;;;;7381537;19;20044;-72
2023/04/21 00:20:55;;;;;;;30.05;16.20;;;12.40;75.10;;;;;;7381371;19;20006;-72
2023/04/21 00:23:24;;;;;;;28.35;15.60;;;12.30;75.40;;;;;;7402192;19;20074;-72
2023/04/21 00:25:53;;;;;;;30.23;15.63;;;12.30;75.70;;;;;;7382447;19;20066;-72
2023/04/21 00:28:22;;;;;;;29.15;13.20;;;12.30;75.40;;;;;;7382230;19;20007;-72
2023/04/21 00:30:53;;;;;;;24.45;13.98;;;12.30;75.50;;;;;;7381384;19;20007;-72
2023/04/21 00:33:21;;;;;;;30.15;14.63;;;12.30;75.50;;;;;;7382798;19;20011;-72
2023/04/21 00:35:50;;;;;;;31.08;15.25;;;12.30;75.80;;;;;;7382208;19;20002;-72
2023/04/21 00:38:21;;;;;;;23.88;14.07;;;12.30;76.00;;;;;;7403773;19;20014;-72
2023/04/21 00:40:50;;;;;;;30.33;15.05;;;12.20;76.60;;;;;;7381865;19;20003;-72
2023/04/21 00:43:19;;;;;;;29.95;15.10;;;12.10;77.00;;;;;;7381137;19;20074;-72
2023/04/21 00:45:48;;;;;;;30.70;15.30;;;12.00;77.20;;;;;;7381655;19;20021;-71
2023/04/21 00:48:17;;;;;;;28.25;14.77;;;12.00;77.30;;;;;;7381707;19;20013;-72
2023/04/21 00:50:46;;;;;;;28.33;14.43;;;12.00;76.90;;;;;;7379501;19;20063;-72
2023/04/21 00:53:16;;;;;;;28.30;16.13;;;11.90;77.20;;;;;;7400158;19;20375;-72
2023/04/21 00:55:48;;;;;;;31.35;16.10;;;11.90;76.90;;;;;;7380771;19;20003;-72
2023/04/21 00:58:17;;;;;;;27.40;15.70;;;11.90;76.70;;;;;;7380761;19;20019;-72
2023/04/21 01:00:46;;;;;;;31.65;15.98;;;11.90;76.90;;;;;;7380436;19;20010;-72
2023/04/21 01:03:15;;;;;;;32.40;16.33;;;11.90;76.70;;;;;;7382113;19;20125;-72
2023/04/21 01:05:44;;;;;;;34.13;15.80;;;12.00;76.80;;;;;;7383511;19;20030;-71
2023/04/21 01:08:12;;;;;;;31.55;16.08;;;12.00;76.60;;;;;;7402583;19;20422;-72
2023/04/21 01:10:41;;;;;;;30.65;16.35;;;12.00;76.60;;;;;;7379939;19;20007;-72
2023/04/21 01:13:13;;;;;;;30.70;16.55;;;11.90;76.60;;;;;;7380540;19;20350;-71
2023/04/21 01:15:41;;;;;;;30.80;16.55;;;11.90;76.50;;;;;;7380912;19;20030;-71
2023/04/21 01:18:10;;;;;;;28.30;15.00;;;11.90;76.60;;;;;;7379467;19;20062;-72
2023/04/21 01:20:39;;;;;;;27.85;14.95;;;11.90;76.30;;;;;;7379927;19;20010;-72
2023/04/21 01:23:10;;;;;;;25.83;15.10;;;11.90;76.00;;;;;;7401812;19;20014;-72
2023/04/21 01:25:39;;;;;;;25.95;14.68;;;11.90;75.90;;;;;;7379495;19;20002;-72
2023/04/21 01:28:07;;;;;;;28.58;15.25;;;11.90;76.10;;;;;;7379824;19;20382;-72
2023/04/21 01:30:36;;;;;;;26.60;14.55;;;11.80;75.80;;;;;;7379635;19;20066;-72
2023/04/21 01:33:05;;;;;;;28.35;14.25;;;11.80;75.90;;;;;;7380257;19;20018;-72
2023/04/21 01:35:34;;;;;;;26.02;14.90;;;11.70;76.20;;;;;;7378566;19;20038;-72
2023/04/21 01:38:02;;;;;;;25.73;14.25;;;11.70;77.10;;;;;;7401029;19;20023;-72
2023/04/21 01:40:34;;;;;;;33.60;15.85;;;11.70;76.30;;;;;;7379907;19;20017;-71
2023/04/21 01:43:03;;;;;;;;;;;11.70;76.40;;;;;;7387020;19;20003;-72
2023/04/21 01:45:32;;;;;;;31.27;15.27;;;11.60;76.60;;;;;;7390909;19;19914;-72
2023/04/21 01:48:01;;;;;;;33.88;16.05;;;11.50;77.00;;;;;;7382606;19;20018;-72
2023/04/21 01:50:30;;;;;;;31.73;15.82;;;11.40;77.40;;;;;;7383708;19;20015;-72
2023/04/21 01:52:58;;;;;;;27.23;14.93;;;11.40;77.30;;;;;;7401446;19;20111;-72
2023/04/21 01:55:28;;;;;;;30.48;16.25;;;11.40;76.90;;;;;;7379400;19;20078;-72
2023/04/21 01:57:59;;;;;;;31.02;17.35;;;11.40;77.00;;;;;;7381004;19;20069;-71
2023/04/21 02:00:29;;;;;;;32.55;16.92;;;11.40;77.10;;;;;;7379801;19;20009;-72
2023/04/21 02:02:57;;;;;;;36.33;17.65;;;11.30;77.40;;;;;;7380425;19;20003;-72
2023/04/21 02:05:26;;;;;;;30.10;15.68;;;11.40;77.50;;;;;;7399397;19;20310;-72
2023/04/21 02:07:55;;;;;;;34.88;16.52;;;11.40;77.50;;;;;;7379914;19;20019;-72
2023/04/21 02:10:23;;;;;;;26.83;15.95;;;11.40;76.60;;;;;;7379425;19;20010;-72
2023/04/21 02:12:52;;;;;;;37.13;17.02;;;11.40;76.60;;;;;;7378262;19;20020;-72
2023/04/21 02:15:23;;;;;;;29.50;15.52;;;11.40;76.70;;;;;;7379687;19;20011;-72
2023/04/21 02:17:52;;;;;;;30.75;15.88;;;11.40;76.70;;;;;;7378120;19;20035;-72
2023/04/21 02:20:21;;;;;;;32.70;15.90;;;11.40;76.40;;;;;;7401149;19;20010;-72
2023/04/21 02:22:50;;;;;;;29.00;16.08;;;11.40;76.50;;;;;;7378965;19;20288;-72
2023/04/21 02:25:18;;;;;;;29.88;17.02;;;11.40;76.80;;;;;;7377978;19;20303;-72
2023/04/21 02:27:47;;;;;;;31.15;16.25;;;11.30;77.20;;;;;;7378089;19;20380;-72
2023/04/21 02:30:16;;;;;;;33.67;16.27;;;11.30;77.40;;;;;;7378295;19;20007;-72
2023/04/21 02:32:47;;;;;;;34.55;17.25;;;11.20;77.70;;;;;;7377035;19;20010;-72
2023/04/21 02:35:16;;;;;;;30.25;15.38;;;11.20;77.70;;;;;;7400368;19;20011;-72
2023/04/21 02:37:45;;;;;;;32.90;17.27;;;11.20;78.00;;;;;;7377589;19;20007;-72
2023/04/21 02:40:14;;;;;;;39.92;17.50;;;11.20;78.00;;;;;;7377451;19;20374;-72
2023/04/21 02:42:43;;;;;;;33.05;16.77;;;11.20;77.70;;;;;;7377183;19;19999;-71
2023/04/21 02:45:13;;;;;;;32.75;17.08;;;11.10;77.50;;;;;;7376854;19;20067;-72
2023/04/21 02:47:41;;;;;;;42.75;18.92;;;11.10;77.60;;;;;;7378230;19;20480;-72
2023/04/21 02:50:15;;;;;;;35.65;17.33;;;11.10;77.50;;;;;;7397454;19;20003;-72
2023/04/21 02:52:44;;;;;;;32.08;17.00;;;11.10;77.60;;;;;;7375613;19;20020;-72
2023/04/21 02:55:13;;;;;;;41.60;16.52;;;11.10;77.20;;;;;;7377605;19;20062;-71
2023/04/21 02:57:41;;;;;;;32.65;17.58;;;11.00;77.00;;;;;;7379131;19;20007;-72
2023/04/21 03:00:12;;;;;;;31.77;17.17;;;11.00;77.30;;;;;;7377369;19;20319;-73
2023/04/21 03:02:41;;;;;;;35.38;19.15;;;11.00;77.50;;;;;;7378012;19;20017;-72
2023/04/21 03:05:12;;;;;;;36.47;17.08;;;11.00;77.70;;;;;;7397162;19;20010;-72
2023/04/21 03:07:41;;;;;;;;;;;11.00;77.90;;;;;;7377611;19;20014;-72
2023/04/21 03:10:10;;;;;;;37.25;16.75;;;10.90;77.30;;;;;;7377939;19;19907;-72
2023/04/21 03:12:38;;;;;;;36.53;17.85;;;10.90;77.50;;;;;;7377668;19;20074;-72
2023/04/21 03:15:08;;;;;;;39.42;17.83;;;10.90;77.70;;;;;;7377899;19;20014;-72
2023/04/21 03:17:37;;;;;;;35.80;17.15;;;10.90;78.00;;;;;;7384429;19;20019;-72
2023/04/21 03:20:07;;;;;;;34.00;17.45;;;10.90;78.00;;;;;;7403201;19;20015;-71
2023/04/21 03:22:38;;;;;;;30.48;16.05;;;10.90;77.60;;;;;;7384226;19;20003;-71
2023/04/21 03:25:07;;;;;;;31.70;16.13;;;10.90;77.40;;;;;;7385151;19;20422;-73
2023/04/21 03:27:36;;;;;;;36.85;17.35;;;10.90;77.60;;;;;;7384484;19;20006;-72
2023/04/21 03:30:06;;;;;;;34.20;17.08;;;10.90;77.70;;;;;;7384733;19;20287;-72
2023/04/21 03:32:35;;;;;;;33.65;17.52;;;11.00;77.80;;;;;;7382337;19;20007;-72
2023/04/21 03:35:06;;;;;;;38.97;16.95;;;11.00;78.00;;;;;;7407739;19;20011;-72
2023/04/21 03:37:34;;;;;;;34.17;16.42;;;11.10;77.80;;;;;;7385389;19;20022;-71
2023/04/21 03:40:07;;;;;;;30.90;16.23;;;11.10;78.00;;;;;;7385617;19;20010;-72
2023/04/21 03:42:36;;;;;;;38.30;17.45;;;11.10;78.10;;;;;;7384477;19;20066;-72
2023/04/21 03:45:05;;;;;;;34.60;17.85;;;11.20;78.10;;;;;;7384453;19;20086;-72
2023/04/21 03:47:34;;;;;;;36.35;17.48;;;11.20;78.30;;;;;;7383842;19;20007;-71
2023/04/21 03:50:02;;;;;;;32.05;16.45;;;11.20;78.40;;;;;;7402278;19;20066;-72
2023/04/21 03:52:31;;;;;;;38.22;17.83;;;11.20;78.50;;;;;;7381003;19;20023;-72
2023/04/21 03:55:00;;;;;;;39.45;18.27;;;11.30;78.50;;;;;;7382186;19;20506;-72
2023/04/21 03:57:31;;;;;;;39.83;18.60;;;11.30;78.70;;;;;;7384683;19;20002;-72
2023/04/21 04:00:00;;;;;;;;;;;11.30;78.90;;;;;;7384555;19;20009;-72
2023/04/21 04:02:28;;;;;;;35.88;18.48;;;11.30;79.30;;;;;;7406400;19;19927;-72
2023/04/21 04:04:57;;;;;;;53.92;19.70;;;11.30;79.40;;;;;;7394687;19;20034;-72
2023/04/21 04:07:26;;;;;;;38.55;19.13;;;11.40;79.60;;;;;;7386965;19;20023;-72
2023/04/21 04:09:55;;;;;;;39.25;19.23;;;11.40;79.60;;;;;;7382518;19;20007;-72
2023/04/21 04:12:23;;;;;;;45.75;20.45;;;11.50;79.70;;;;;;7382734;19;20006;-73
2023/04/21 04:14:54;;;;;;;39.22;19.67;;;11.50;79.70;;;;;;7383242;19;20012;-72
2023/04/21 04:17:23;;;;;;;43.35;19.25;;;11.50;79.40;;;;;;7404653;19;20062;-72
2023/04/21 04:19:52;;;;;;;39.75;19.63;;;11.50;79.60;;;;;;7382646;19;20378;-73
2023/04/21 04:22:21;;;;;;;38.40;19.35;;;11.60;79.70;;;;;;7383842;19;20011;-73
2023/04/21 04:24:50;;;;;;;39.15;19.17;;;11.60;79.70;;;;;;7382707;19;20346;-72
2023/04/21 04:27:19;;;;;;;40.50;19.45;;;11.60;79.80;;;;;;7383060;19;20755;-73
2023/04/21 04:29:48;;;;;;;46.10;19.58;;;11.50;79.90;;;;;;7380900;19;20224;-72
2023/04/21 04:32:19;;;;;;;41.10;19.58;;;11.50;80.00;;;;;;7402836;19;20196;-72
2023/04/21 04:34:48;;;;;;;;;;;11.50;80.30;;;;;;7382297;19;20389;-73
2023/04/21 04:37:16;;;;;;;44.58;20.45;;;11.50;80.50;;;;;;7381537;19;20017;-73
2023/04/21 04:39:45;;;;;;;38.53;20.30;;;11.50;80.60;;;;;;7383983;19;20019;-73
2023/04/21 04:42:14;;;;;;;39.58;20.85;;;11.50;80.90;;;;;;7383986;19;20074;-73
2023/04/21 04:44:43;;;;;;;49.30;23.33;;;11.50;81.00;;;;;;7383901;19;20027;-72
2023/04/21 04:47:11;;;;;;;47.25;22.20;;;11.50;81.10;;;;;;7403713;19;20010;-73
2023/04/21 04:49:43;;;;;;;51.70;22.63;;;11.50;81.20;;;;;;7380902;19;20007;-73
2023/04/21 04:52:11;;;;;;;48.25;22.75;;;11.50;81.20;;;;;;7380016;19;20069;-73
2023/04/21 04:54:40;;;;;;;49.67;22.92;;;11.50;81.10;;;;;;7381630;19;20008;-72
2023/04/21 04:57:09;;;;;;;51.53;23.73;;;11.50;81.20;;;;;;7381459;19;20006;-72
2023/04/21 04:59:38;;;;;;;44.13;21.23;;;11.50;82.30;;;;;;7379650;19;20061;-72
2023/04/21 05:02:06;;;;;;;46.60;21.85;;;11.40;81.80;;;;;;7400975;19;20323;-72
2023/04/21 05:04:36;;;;;;;49.85;22.25;;;11.50;82.20;;;;;;7381764;19;20066;-72
2023/04/21 05:07:07;;;;;;;45.40;22.45;;;11.60;82.40;;;;;;7380808;19;20169;-72
2023/04/21 05:09:36;;;;;;;49.45;23.75;;;11.60;82.20;;;;;;7380233;19;19999;-72
2023/04/21 05:12:05;;;;;;;49.10;24.25;;;11.60;82.40;;;;;;7379691;19;20003;-72
2023/04/21 05:14:33;;;;;;;49.92;24.10;;;11.60;82.50;;;;;;7388852;19;20308;-72
2023/04/21 05:17:02;;;;;;;53.67;22.70;;;11.60;82.70;;;;;;7402321;19;20070;-72
2023/04/21 05:19:31;;;;;;;55.53;24.15;;;11.60;82.70;;;;;;7380225;19;20287;-72
2023/04/21 05:22:02;;;;;;;48.03;23.08;;;11.60;82.90;;;;;;7380059;19;20016;-73
2023/04/21 05:24:34;;;;;;;51.08;23.55;;;11.60;83.00;;;;;;7381312;19;20225;-72
2023/04/21 05:27:03;;;;;;;55.25;23.25;;;11.70;83.00;;;;;;7378751;19;20066;-72
2023/04/21 05:29:33;;;;;;;52.85;23.10;;;11.70;82.70;;;;;;7402134;19;20237;-72
2023/04/21 05:32:01;;;;;;;46.60;21.95;;;11.70;82.60;;;;;;7380752;19;20026;-73
2023/04/21 05:34:30;;;;;;;58.83;24.35;;;11.80;82.70;;;;;;7381694;19;20007;-73
2023/04/21 05:36:59;;;;;;;55.80;22.65;;;11.80;82.50;;;;;;7382242;19;20007;-73
2023/04/21 05:39:29;;;;;;;50.10;24.13;;;11.80;82.70;;;;;;7378490;19;20024;-73
2023/04/21 05:42:01;;;;;;;52.85;22.98;;;11.80;82.80;;;;;;7379266;19;20010;-73
2023/04/21 05:44:29;;;;;;;40.90;22.98;;;11.90;83.10;;;;;;7402023;19;20102;-74
2023/04/21 05:46:58;;;;;;;45.58;22.60;;;11.90;82.90;;;;;;7379379;19;20005;-73
2023/04/21 05:49:27;;;;;;;50.15;23.20;;;12.00;83.00;;;;;;7379897;19;20007;-73
2023/04/21 05:51:56;;;;;;;55.90;23.95;;;12.00;83.00;;;;;;7380917;19;20010;-73
2023/04/21 05:54:24;;;;;;;53.05;23.13;;;12.10;83.00;;;;;;7381490;19;20019;-73
2023/04/21 05:56:53;;;;;;;55.58;23.17;;;12.10;83.00;;;;;;7380029;19;20020;-72
2023/04/21 05:59:25;;;;;;;46.55;23.50;;;12.10;83.20;;;;;;7401019;19;20016;-72
2023/04/21 06:01:54;;;;;;;48.95;23.35;;;12.20;82.90;;;;;;7378275;19;20002;-72
2023/04/21 06:04:22;;;;;;;49.47;22.73;;;12.10;82.50;;;;;;7379047;19;20007;-72
2023/04/21 06:06:51;;;;;;;45.55;21.95;;;12.10;82.40;;;;;;7378604;19;20007;-72
2023/04/21 06:09:20;;;;;;;43.38;23.10;;;12.10;82.50;;;;;;7377861;19;20003;-72
2023/04/21 06:11:49;;;;;;;46.53;22.83;;;12.20;82.70;;;;;;7378836;19;20023;-72
2023/04/21 06:14:18;;;;;;;43.42;23.40;;;12.10;82.50;;;;;;7400956;19;20269;-73
2023/04/21 06:16:49;;;;;;;40.47;21.05;;;12.20;82.60;;;;;;7378738;19;20022;-72
2023/04/21 06:19:18;;;;;;;43.10;22.80;;;12.20;82.60;;;;;;7380259;19;20024;-73
2023/04/21 06:21:46;;;;;;;43.63;21.65;;;12.20;82.70;;;;;;7380092;19;20300;-73
2023/04/21 06:24:15;;;;;;;40.45;21.48;;;12.20;82.90;;;;;;7388647;19;20014;-71
2023/04/21 06:26:44;;;;;;;46.47;23.05;;;12.10;82.60;;;;;;7389373;19;20012;-72
2023/04/21 06:29:13;;;;;;;41.65;22.95;;;12.00;83.20;;;;;;7400276;19;20027;-72
2023/04/21 06:31:41;;;;;;;43.13;23.25;;;11.90;83.30;;;;;;7378415;19;20105;-72
2023/04/21 06:34:13;;;;;;;42.83;22.58;;;11.90;83.30;;;;;;7377807;19;20054;-72
2023/04/21 06:36:41;;;;;;;42.40;23.08;;;12.00;83.50;;;;;;7378133;19;20387;-73
2023/04/21 06:39:10;;;;;;;41.10;23.10;;;12.00;83.60;;;;;;7377226;19;20038;-72
2023/04/21 06:41:39;;;;;;;41.10;23.05;;;12.00;83.60;;;;;;7378254;19;20423;-73
2023/04/21 06:44:07;;;;;;;42.33;23.05;;;12.10;83.80;;;;;;7399725;19;20007;-73
2023/04/21 06:46:36;;;;;;;50.38;24.00;;;12.10;83.70;;;;;;7377748;19;19999;-72
2023/04/21 06:49:05;;;;;;;45.25;23.35;;;12.00;83.60;;;;;;7377517;19;20023;-73
2023/04/21 06:51:36;;;;;;;49.90;22.75;;;12.00;83.70;;;;;;7388224;19;20066;-72
2023/04/21 06:54:05;;;;;;;44.38;23.45;;;12.00;83.90;;;;;;7384201;19;20007;-73
2023/04/21 06:56:34;;;;;;;39.38;22.90;;;12.10;83.80;;;;;;7389276;19;20015;-72
2023/04/21 06:59:03;;;;;;;45.70;24.33;;;12.20;83.70;;;;;;7407218;19;20066;-75
2023/04/21 07:01:31;;;;;;;40.00;22.48;;;12.30;83.40;;;;;;7384851;19;20062;-74
2023/04/21 07:04:00;;;;;;;46.83;23.92;;;12.30;83.20;;;;;;7386299;19;20011;-75
2023/04/21 07:06:30;;;;;;;41.53;22.55;;;12.40;83.20;;;;;;7385294;19;20019;-74
2023/04/21 07:09:02;;;;;;;42.78;22.95;;;12.40;83.00;;;;;;7383155;19;20003;-74
2023/04/21 07:11:30;;;;;;;;;;;12.40;82.90;;;;;;7407804;19;20010;-73
2023/04/21 07:14:01;;;;;;;41.75;20.75;;;12.50;82.80;;;;;;7382307;19;19920;-74
2023/04/21 07:16:29;;;;;;;45.83;22.95;;;12.40;82.50;;;;;;7384694;19;20007;-75
2023/04/21 07:18:58;;;;;;;48.70;21.55;;;12.50;82.60;;;;;;7384822;19;20003;-74
2023/04/21 07:21:29;;;;;;;39.80;20.25;;;12.40;82.40;;;;;;7383764;19;20016;-74
2023/04/21 07:23:57;;;;;;;35.13;20.73;;;12.50;82.50;;;;;;7385995;19;20035;-74
2023/04/21 07:26:28;;;;;;;39.78;19.92;;;12.60;82.50;;;;;;7409690;19;20007;-72
2023/04/21 07:28:58;;;;;;;35.38;19.58;;;12.70;82.20;;;;;;7387693;19;20002;-73
2023/04/21 07:31:27;;;;;;;34.10;18.60;;;12.80;82.00;;;;;;7385950;19;20017;-74
2023/04/21 07:33:56;;;;;;;29.48;17.83;;;12.80;81.20;;;;;;7384555;19;20608;-72
2023/04/21 07:36:27;;;;;;;28.75;17.48;;;12.90;81.10;;;;;;7384542;19;20024;-72
2023/04/21 07:38:55;;;;;;;31.27;17.55;;;12.90;80.60;;;;;;7379871;19;20015;-72
2023/04/21 07:41:24;;;;;;;32.78;16.95;;;12.80;80.10;;;;;;7405602;19;20224;-71
2023/04/21 07:43:56;;;;;;;34.90;16.30;;;12.90;80.20;;;;;;7383310;19;20419;-71
2023/04/21 07:46:28;;;;;;;;;;;12.80;80.00;;;;;;7384296;19;20011;-71
2023/04/21 07:48:58;;;;;;;27.90;15.30;;;13.00;80.20;;;;;;7382829;19;19911;-72
2023/04/21 07:51:28;;;;;;;29.08;16.95;;;13.00;80.00;;;;;;7386560;19;20007;-70
2023/04/21 07:53:57;;;;;;;28.60;17.20;;;13.00;80.00;;;;;;7382525;19;20288;-71
2023/04/21 07:56:26;;;;;;;35.50;17.83;;;13.10;80.00;;;;;;7404049;19;20113;-71
2023/04/21 07:58:57;;;;;;;34.53;19.15;;;13.10;80.10;;;;;;7383703;19;20245;-71
2023/04/21 08:01:26;;;;;;;34.13;19.63;;;13.20;79.90;;;;;;7382414;19;20066;-71
2023/04/21 08:03:54;;;;;;;35.22;18.35;;;13.20;79.90;;;;;;7384051;19;20028;-72
2023/04/21 08:06:23;;;;;;;38.67;20.85;;;13.20;80.00;;;;;;7383396;19;20003;-71
2023/04/21 08:08:53;;;;;;;36.92;20.35;;;13.20;79.90;;;;;;7383403;19;20026;-71
2023/04/21 08:11:21;;;;;;;33.17;20.20;;;13.20;80.00;;;;;;7405093;19;20331;-72
2023/04/21 08:13:51;;;;;;;41.20;21.17;;;13.20;79.80;;;;;;7382794;19;20062;-72
2023/04/21 08:16:22;;;;;;;35.80;20.40;;;13.20;79.70;;;;;;7384348;19;20015;-72
2023/04/21 08:18:51;;;;;;;42.80;22.55;;;13.20;79.70;;;;;;7383495;19;20049;-71
2023/04/21 08:21:19;;;;;;;37.75;19.33;;;13.10;80.20;;;;;;7380980;19;20007;-72
2023/04/21 08:23:49;;;;;;;33.75;20.80;;;13.00;80.10;;;;;;7384137;19;20011;-72
2023/04/21 08:26:20;;;;;;;39.25;19.05;;;13.10;80.20;;;;;;7406182;19;20011;-72
2023/04/21 08:28:49;;;;;;;32.00;19.52;;;13.10;80.20;;;;;;7383690;19;20010;-72
2023/04/21 08:31:21;;;;;;;35.50;19.58;;;13.10;80.50;;;;;;7382881;19;20003;-72
2023/04/21 08:33:50;;;;;;;34.20;19.30;;;13.10;80.60;;;;;;7381615;19;20007;-72
2023/04/21 08:36:19;;;;;;;34.08;18.45;;;13.20;80.20;;;;;;7380900;19;20439;-71
2023/04/21 08:38:47;;;;;;;34.03;18.83;;;13.20;79.90;;;;;;7382315;19;20022;-71
2023/04/21 08:41:16;;;;;;;36.60;19.88;;;13.30;79.90;;;;;;7402962;19;20007;-72
2023/04/21 08:43:45;;;;;;;35.10;18.45;;;13.40;79.80;;;;;;7386068;19;20457;-72
2023/04/21 08:46:14;;;;;;;37.05;20.00;;;13.30;79.40;;;;;;7393875;19;20015;-72
2023/04/21 08:48:47;;;;;;;33.15;19.65;;;13.30;79.00;;;;;;7383084;19;20003;-72
2023/04/21 08:51:22;;;;;;;35.45;19.35;;;13.30;79.30;;;;;;7382683;19;20081;-71
2023/04/21 08:53:51;;;;;;;28.48;16.98;;;13.30;79.30;;;;;;7380300;19;20002;-71
2023/04/21 08:56:20;;;;;;;31.40;18.80;;;13.40;78.50;;;;;;7403269;19;20011;-71
2023/04/21 08:58:48;;;;;;;29.15;17.52;;;13.30;78.30;;;;;;7380552;19;20007;-71
2023/04/21 09:01:17;;;;;;;30.65;16.95;;;13.30;78.50;;;;;;7381026;19;20002;-71
2023/04/21 09:03:48;;;;;;;31.27;15.90;;;13.40;78.50;;;;;;7381264;19;20373;-71
2023/04/21 09:06:17;;;;;;;30.00;15.95;;;13.50;78.10;;;;;;7381276;19;20401;-72
2023/04/21 09:08:55;;;;;;;29.80;16.20;;;13.60;78.70;;;;;;7381899;19;20359;-73
2023/04/21 09:11:24;;;;;;;31.52;16.75;;;13.70;77.80;;;;;;7403437;19;20223;-72
2023/04/21 09:13:53;;;;;;;26.35;16.88;;;13.80;77.30;;;;;;7376930;19;20006;-72
2023/04/21 09:16:23;;;;;;;32.65;15.60;;;13.90;77.10;;;;;;7381398;19;20393;-73
2023/04/21 09:18:55;;;;;;;34.08;17.20;;;13.90;76.90;;;;;;7381756;19;20030;-72
2023/04/21 09:21:30;;;;;;;28.98;16.00;;;14.00;76.20;;;;;;7381070;19;20003;-72
2023/04/21 09:23:59;;;;;;;32.70;16.02;;;14.00;75.50;;;;;;7380262;19;20030;-71
2023/04/21 09:26:28;;;;;;;36.70;16.90;;;14.10;75.70;;;;;;7403735;19;20011;-71
2023/04/21 09:28:56;;;;;;;30.92;17.08;;;14.30;75.60;;;;;;7380932;19;20030;-71
2023/04/21 09:31:27;;;;;;;28.55;16.77;;;14.20;76.10;;;;;;7380946;19;20010;-71
2023/04/21 09:34:00;;;;;;;23.63;14.77;;;14.20;75.20;;;;;;7378778;19;20023;-71
2023/04/21 09:36:30;;;;;;;24.48;14.60;;;14.40;75.00;;;;;;7379651;19;20010;-72
2023/04/21 09:39:00;;;;;;;24.58;14.65;;;14.40;73.40;;;;;;7380374;19;20011;-71
2023/04/21 09:41:29;;;;;;;25.02;14.05;;;14.30;72.80;;;;;;7402619;19;20015;-71
2023/04/21 09:44:00;;;;;;;25.48;14.25;;;14.40;72.40;;;;;;7379340;19;20026;-71
2023/04/21 09:46:31;;;;;;;24.67;14.27;;;14.40;72.30;;;;;;7381037;19;20003;-71
2023/04/21 09:49:06;;;;;;;26.05;14.38;;;14.40;72.70;;;;;;7379490;19;19998;-71
2023/04/21 09:51:35;;;;;;;24.40;15.00;;;14.50;72.40;;;;;;7379654;19;20019;-71
2023/04/21 09:54:12;;;;;;;24.70;15.05;;;14.50;72.20;;;;;;7378926;19;20256;-71
2023/04/21 09:56:44;;;;;;;22.83;14.25;;;14.40;71.40;;;;;;7379311;19;20265;-74
2023/04/21 09:59:18;;;;;;;23.80;14.02;;;14.50;72.20;;;;;;7400351;19;20010;-70
2023/04/21 10:01:51;;;;;;;26.73;14.60;;;14.50;71.10;;;;;;7378842;19;20265;-72
2023/04/21 10:04:23;;;;;;;24.15;14.10;;;14.50;71.10;;;;;;7379265;19;20260;-72
2023/04/21 10:06:54;;;;;;;24.17;13.75;;;14.50;71.10;;;;;;7380170;19;20003;-72
2023/04/21 10:09:25;;;;;;;24.10;13.13;;;14.60;71.30;;;;;;7381477;19;20019;-72
2023/04/21 10:11:55;;;;;;;28.50;13.93;;;14.70;72.10;;;;;;7379843;19;20017;-72
2023/04/21 10:14:24;;;;;;;22.20;14.43;;;14.70;72.80;;;;;;7400120;19;20015;-71
2023/04/21 10:16:58;;;;;;;28.70;14.10;;;14.80;73.40;;;;;;7379060;19;20014;-73
2023/04/21 10:19:34;;;;;;;29.30;14.55;;;14.80;71.90;;;;;;7380794;19;20059;-73
2023/04/21 10:22:03;;;;;;;24.92;14.77;;;14.80;70.70;;;;;;7381367;19;19999;-73
2023/04/21 10:24:32;;;;;;;28.83;14.35;;;14.90;71.90;;;;;;7382257;19;20011;-72
2023/04/21 10:27:01;;;;;;;23.77;14.27;;;14.90;70.80;;;;;;7380598;19;20007;-72
2023/04/21 10:29:34;;;;;;;25.77;15.00;;;14.80;71.80;;;;;;7401139;19;20010;-71
2023/04/21 10:32:04;;;;;;;20.92;13.95;;;14.70;70.90;;;;;;7378767;19;20252;-74
2023/04/21 10:34:40;;;;;;;28.23;13.98;;;14.80;70.30;;;;;;7377864;19;19999;-73
2023/04/21 10:37:18;;;;;;;23.80;14.10;;;14.80;70.80;;;;;;7380405;19;20263;-74
2023/04/21 10:39:58;;;;;;;24.10;14.18;;;14.80;70.50;;;;;;7380181;19;20400;-72
2023/04/21 10:42:45;;;;;;;33.03;14.75;;;14.80;70.90;;;;;;7381342;19;20002;-73
2023/04/21 10:45:15;;;;;;;20.73;12.45;;;14.90;70.90;;;;;;7379614;19;20062;-73
2023/04/21 10:47:48;;;;;;;22.65;13.43;;;15.00;70.20;;;;;;7380015;19;20023;-73
2023/04/21 10:50:22;;;;;;;23.13;12.75;;;15.10;70.70;;;;;;7402529;19;20034;-75
2023/04/21 10:52:58;;;;;;;23.10;13.70;;;15.10;71.40;;;;;;7380256;19;20556;-74
2023/04/21 10:55:31;;;;;;;30.92;13.15;;;15.20;70.80;;;;;;7381796;19;20030;-74
2023/04/21 10:58:04;;;;;;;26.42;14.57;;;15.30;70.20;;;;;;7378330;19;20294;-74
2023/04/21 11:00:33;;;;;;;25.08;14.60;;;15.40;69.20;;;;;;7378293;19;20361;-72
2023/04/21 11:03:03;;;;;;;30.88;13.85;;;15.50;69.50;;;;;;7392067;19;20010;-73
2023/04/21 11:05:43;;;;;;;23.45;13.45;;;15.50;69.70;;;;;;7405215;19;20006;-74
2023/04/21 11:08:16;;;;;;;23.60;13.82;;;15.50;67.60;;;;;;7378231;19;20015;-74
2023/04/21 11:10:47;;;;;;;29.02;13.55;;;15.50;67.40;;;;;;7378218;19;20007;-74
2023/04/21 11:13:16;;;;;;;28.27;13.32;;;15.60;68.20;;;;;;7377778;19;20010;-75
2023/04/21 11:15:57;;;;;;;22.98;12.60;;;15.70;67.90;;;;;;7376392;19;20014;-75
2023/04/21 11:18:44;;;;;;;17.98;12.30;;;15.60;68.20;;;;;;7380123;19;20131;-75
2023/04/21 11:21:20;;;;;;;17.48;11.35;;;15.70;68.00;;;;;;7383480;19;20011;-76
2023/04/21 11:23:54;;;;;;;20.15;11.88;;;15.90;67.50;;;;;;7382165;19;20010;-74
2023/04/21 11:26:37;;;;;;;20.48;11.70;;;16.00;66.90;;;;;;7399962;19;20010;-75
2023/04/21 11:29:07;;;;;;;21.10;11.63;;;16.10;66.30;;;;;;7380031;19;20254;-75
2023/04/21 11:31:37;;;;;;;17.50;11.80;;;16.20;65.80;;;;;;7379946;19;20007;-74
2023/04/21 11:34:07;;;;;;;21.83;10.50;;;16.20;63.50;;;;;;7378232;19;20006;-75
2023/04/21 11:36:40;;;;;;;20.40;11.23;;;16.10;64.00;;;;;;7379313;19;20003;-75
2023/04/21 11:39:10;;;;;;;17.73;11.85;;;16.20;63.10;;;;;;7386625;19;20242;-75
2023/04/21 11:41:41;;;;;;;18.27;10.85;;;16.20;63.70;;;;;;7384691;19;20105;-75
2023/04/21 11:44:10;;;;;;;15.88;10.50;;;16.20;62.70;;;;;;7404629;19;20058;-75
2023/04/21 11:46:39;;;;;;;19.58;10.70;;;16.30;63.30;;;;;;7386868;19;20023;-75
2023/04/21 11:49:09;;;;;;;18.17;10.73;;;16.30;63.70;;;;;;7389231;19;20031;-75
2023/04/21 11:51:42;;;;;;;18.65;11.57;;;16.40;63.90;;;;;;7386309;19;20015;-75
2023/04/21 11:54:12;;;;;;;17.83;10.90;;;16.40;63.40;;;;;;7384315;19;20284;-74
2023/04/21 11:56:43;;;;;;;17.92;10.75;;;16.50;63.70;;;;;;7383455;19;20397;-74
2023/04/21 11:59:13;;;;;;;;;;;16.50;62.60;;;;;;7405658;19;20062;-72
2023/04/21 12:01:49;;;;;;;14.73;10.10;;;16.50;62.60;;;;;;7383411;19;19915;-77
2023/04/21 12:04:19;;;;;;;22.50;10.18;;;16.40;62.00;;;;;;7381276;19;20097;-77
2023/04/21 12:06:59;;;;;;;35.00;10.57;;;16.40;62.50;;;;;;7383175;19;20023;-76
2023/04/21 12:09:29;;;;;;;17.33;11.13;;;16.30;61.50;;;;;;7383641;19;20027;-73
2023/04/21 12:12:00;;;;;;;18.58;10.52;;;16.30;61.50;;;;;;7383963;19;20731;-73
2023/04/21 12:14:31;;;;;;;17.92;10.40;;;16.30;62.10;;;;;;7402538;19;20028;-74
2023/04/21 12:17:00;;;;;;;16.33;9.90;;;16.30;62.20;;;;;;7386111;19;20709;-73
2023/04/21 12:19:38;;;;;;;14.48;9.15;;;16.30;62.70;;;;;;7386551;19;20003;-74
2023/04/21 12:22:12;;;;;;;20.63;9.82;;;16.30;62.40;;;;;;7385075;19;20448;-74
2023/04/21 12:24:42;;;;;;;16.40;10.00;;;16.30;62.50;;;;;;7383556;19;20070;-73
2023/04/21 12:27:11;;;;;;;14.05;9.15;;;16.40;62.20;;;;;;7382872;19;20020;-73
2023/04/21 12:29:40;;;;;;;16.20;9.35;;;16.50;62.20;;;;;;7382918;19;20019;-72
2023/04/21 12:32:11;;;;;;;15.57;9.68;;;16.50;62.00;;;;;;7404350;19;20067;-74
2023/04/21 12:34:42;;;;;;;18.90;10.52;;;16.50;60.90;;;;;;7385827;19;20066;-74
2023/04/21 12:37:13;;;;;;;17.38;9.88;;;16.40;60.60;;;;;;7388323;19;20014;-74
2023/04/21 12:39:42;;;;;;;22.67;11.43;;;16.40;60.30;;;;;;7386564;19;20078;-74
2023/04/21 12:42:11;;;;;;;19.65;11.23;;;16.30;60.10;;;;;;7386873;19;20002;-74